Time;durP1;ratioP1;P1;durP2;ratioP2;P2;SDS_P1;SDS_P2;PMS_P1;PMS_P2;Temp;Humidity;BMP_temperature;BMP_pressure;BME280_temperature;BME280_humidity;BME280_pressure;Samples;Min_cycle;Max_cycle;Signal;HPM_P1;HPM_P2
2022/09/16 00:01:44;;;;;;;5.93;2.23;;;;;;;13.17;100.00;101023.84;5235157;28;20100;-73
2022/09/16 00:04:16;;;;;;;8.53;1.87;;;;;;;13.22;100.00;101027.94;5218597;28;20051;-75
2022/09/16 00:06:48;;;;;;;6.43;1.67;;;;;;;12.90;100.00;101022.13;5235331;28;20400;-74
2022/09/16 00:09:19;;;;;;;7.23;1.60;;;;;;;13.18;100.00;101014.16;5236159;28;20075;-75
2022/09/16 00:11:50;;;;;;;11.33;1.63;;;;;;;13.07;100.00;101020.16;5236267;28;20128;-75
2022/09/16 00:14:21;;;;;;;7.87;2.33;;;;;;;12.91;100.00;101012.47;5235445;28;20034;-75
2022/09/16 00:16:53;;;;;;;7.90;1.73;;;;;;;12.92;100.00;101020.25;5235175;28;20124;-73
2022/09/16 00:19:24;;;;;;;10.97;2.50;;;;;;;12.91;100.00;101015.94;5235191;28;20029;-75
2022/09/16 00:21:55;;;;;;;6.47;2.00;;;;;;;13.09;100.00;101009.53;5236301;28;20041;-75
2022/09/16 00:24:28;;;;;;;7.77;2.23;;;;;;;13.13;100.00;101011.00;5235236;28;20036;-75
2022/09/16 00:26:59;;;;;;;8.57;2.20;;;;;;;13.17;100.00;101013.34;5235108;28;20029;-75
2022/09/16 00:29:30;;;;;;;5.37;1.97;;;;;;;13.23;100.00;101014.69;5234820;28;20029;-75
2022/09/16 00:32:02;;;;;;;11.07;1.90;;;;;;;13.23;100.00;101011.22;5234843;28;20415;-73
2022/09/16 00:34:33;;;;;;;5.73;2.00;;;;;;;13.24;100.00;101008.50;5234885;28;20515;-74
2022/09/16 00:37:08;;;;;;;6.53;2.13;;;;;;;13.18;100.00;101011.53;5235556;28;20060;-75
2022/09/16 00:39:40;;;;;;;6.33;1.97;;;;;;;13.14;100.00;101012.69;5235059;28;20048;-74
2022/09/16 00:42:11;;;;;;;9.10;2.23;;;;;;;12.97;100.00;101006.78;5235089;28;20536;-75
2022/09/16 00:44:52;;;;;;;7.83;2.20;;;;;;;13.00;100.00;101005.75;5234518;28;20033;-73
2022/09/16 00:47:39;;;;;;;9.83;2.03;;;;;;;12.98;100.00;100992.72;5217103;28;20036;-75
2022/09/16 00:50:40;;;;;;;8.70;2.27;;;;;;;13.01;100.00;100995.13;5235561;28;20037;-73
2022/09/16 00:53:23;;;;;;;13.40;2.73;;;;;;;12.90;100.00;100985.31;5228181;28;20041;-74
2022/09/16 00:55:59;;;;;;;9.60;2.23;;;;;;;12.87;100.00;100995.19;5234877;28;20117;-73
2022/09/16 00:58:43;;;;;;;7.87;2.90;;;;;;;12.87;100.00;100998.69;5235293;28;20407;-74
2022/09/16 01:01:14;;;;;;;7.93;2.03;;;;;;;12.52;100.00;100991.34;5234333;28;20033;-74
2022/09/16 01:03:50;;;;;;;5.43;2.17;;;;;;;12.60;100.00;100990.88;5216810;28;20035;-74
2022/09/16 01:06:25;;;;;;;5.50;2.00;;;;;;;12.62;100.00;100997.69;5234558;28;20574;-72
2022/09/16 01:08:56;;;;;;;;;;;;;;;12.81;100.00;100989.41;5252996;22;20036;-74
2022/09/16 01:11:28;;;;;;;6.40;1.87;;;;;;;12.29;100.00;100991.06;5212935;28;19959;-74
2022/09/16 01:17:24;;;;;;;11.13;2.10;;;;;;;12.50;100.00;100986.22;5212890;28;20057;-74
2022/09/16 01:20:10;;;;;;;11.03;3.30;;;;;;;12.38;100.00;100990.47;5213088;28;20033;-74
2022/09/16 01:23:20;;;;;;;6.10;2.00;;;;;;;12.44;100.00;100992.69;5213172;28;20499;-75
2022/09/16 01:26:07;;;;;;;8.17;2.53;;;;;;;12.34;100.00;100987.22;5198801;28;20401;-74
2022/09/16 01:28:53;;;;;;;5.73;2.20;;;;;;;12.42;100.00;100996.38;5213368;28;20496;-74
2022/09/16 01:31:55;;;;;;;9.73;2.50;;;;;;;12.43;100.00;100985.78;5212051;28;20109;-74
2022/09/16 01:35:04;;;;;;;10.63;2.80;;;;;;;12.31;100.00;100992.66;5213221;28;20018;-74
2022/09/16 01:38:03;;;;;;;8.50;2.30;;;;;;;12.15;100.00;100992.00;5212456;28;20441;-72
2022/09/16 01:40:56;;;;;;;5.50;2.33;;;;;;;12.15;100.00;100984.13;5212268;28;20088;-74
2022/09/16 01:43:40;;;;;;;10.30;2.30;;;;;;;12.00;100.00;100988.50;5194091;28;20530;-74
2022/09/16 01:46:21;;;;;;;6.85;2.50;;;;;;;11.93;100.00;100983.66;5193131;28;20473;-75
2022/09/16 01:49:07;;;;;;;8.97;2.60;;;;;;;12.14;100.00;100982.41;5193651;28;20532;-75
2022/09/16 01:51:49;;;;;;;5.83;2.23;;;;;;;12.15;100.00;100982.31;5192084;28;20037;-75
2022/09/16 01:54:35;;;;;;;7.77;2.87;;;;;;;12.06;100.00;100977.63;5193633;28;20389;-75
2022/09/16 01:57:28;;;;;;;6.77;2.20;;;;;;;11.94;100.00;100979.22;5194203;28;20027;-74
2022/09/16 02:00:02;;;;;;;13.43;2.90;;;;;;;11.66;100.00;100978.38;5192816;28;20819;-75
2022/09/16 02:02:41;;;;;;;10.85;3.00;;;;;;;12.00;100.00;100992.00;5193255;28;20062;-75
2022/09/16 02:05:47;;;;;;;9.47;2.87;;;;;;;12.01;100.00;100993.66;5193624;28;20033;-75
2022/09/16 02:08:27;;;;;;;7.83;2.40;;;;;;;11.95;100.00;100999.31;5193516;28;20038;-75
2022/09/16 02:11:02;;;;;;;12.87;2.70;;;;;;;11.94;100.00;101003.72;5191642;28;20050;-75
2022/09/16 02:13:41;;;;;;;10.67;2.60;;;;;;;11.91;100.00;100995.19;5193146;28;20061;-74
2022/09/16 02:16:17;;;;;;;6.03;2.10;;;;;;;11.89;100.00;100999.69;5190727;28;20030;-75
2022/09/16 02:18:56;;;;;;;7.43;2.20;;;;;;;11.93;100.00;101003.81;5193609;28;20026;-75
2022/09/16 02:21:31;;;;;;;7.57;2.77;;;;;;;11.97;100.00;100998.25;5193272;28;20485;-75
2022/09/16 02:24:07;;;;;;;5.10;2.30;;;;;;;12.03;100.00;101006.69;5193378;28;20539;-75
2022/09/16 02:26:43;;;;;;;10.93;2.67;;;;;;;12.02;100.00;101000.63;5191895;28;20034;-75
2022/09/16 02:29:20;;;;;;;7.30;2.50;;;;;;;11.96;100.00;100990.50;5192509;28;20030;-75
2022/09/16 02:31:57;;;;;;;10.07;2.13;;;;;;;11.99;100.00;100992.91;5193156;28;20034;-74
2022/09/16 02:34:33;;;;;;;4.77;2.03;;;;;;;12.07;100.00;100989.81;5193131;28;20120;-75
2022/09/16 02:37:10;;;;;;;6.00;1.80;;;;;;;11.98;100.00;100992.09;5193368;28;20030;-75
2022/09/16 02:39:46;;;;;;;6.17;2.30;;;;;;;11.99;100.00;100990.28;5192620;28;20038;-75
2022/09/16 02:42:18;;;;;;;9.30;2.33;;;;;;;11.81;100.00;100995.78;5192285;28;20053;-74
2022/09/16 02:44:49;;;;;;;11.80;2.33;;;;;;;11.74;100.00;100989.22;5192457;28;20062;-75
2022/09/16 02:47:47;;;;;;;8.97;2.60;;;;;;;11.90;100.00;100997.00;5193083;28;20449;-74
2022/09/16 02:50:33;;;;;;;9.17;2.77;;;;;;;11.79;100.00;100991.56;5196004;28;20113;-74
2022/09/16 02:53:14;;;;;;;10.20;2.83;;;;;;;11.91;100.00;100993.41;5197704;28;20034;-74
2022/09/16 02:56:01;;;;;;;5.07;1.80;;;;;;;11.77;100.00;100996.91;5196900;28;20058;-74
2022/09/16 02:58:32;;;;;;;9.63;2.57;;;;;;;11.77;100.00;100991.66;5195551;28;20057;-74
2022/09/16 03:01:04;;;;;;;7.37;2.23;;;;;;;11.79;100.00;100992.41;5194992;28;20419;-74
2022/09/16 03:03:35;;;;;;;6.50;2.43;;;;;;;11.91;100.00;100993.41;5196738;28;20057;-74
2022/09/16 03:06:17;;;;;;;5.20;1.90;;;;;;;11.86;100.00;100990.25;5197516;28;20041;-74
2022/09/16 03:08:50;;;;;;;9.33;2.57;;;;;;;11.95;100.00;100989.66;5195713;28;20050;-74
2022/09/16 03:11:31;;;;;;;6.67;2.30;;;;;;;11.89;100.00;100983.94;5196758;28;20101;-75
2022/09/16 03:14:12;;;;;;;7.07;2.30;;;;;;;11.78;100.00;100985.47;5196959;28;20081;-74
2022/09/16 03:16:46;;;;;;;8.83;2.30;;;;;;;11.86;100.00;100982.38;5196683;28;20501;-74
2022/09/16 03:19:45;;;;;;;5.03;2.78;;;;;;;12.02;100.00;100978.75;5196552;28;20026;-74
2022/09/16 03:22:41;;;;;;;6.33;2.17;;;;;;;12.02;100.00;100973.50;5196291;28;20037;-73
2022/09/16 03:25:43;;;;;;;12.63;2.87;;;;;;;12.01;100.00;100990.22;5192498;28;20042;-74
2022/09/16 03:28:19;;;;;;;5.90;1.93;;;;;;;12.05;100.00;100983.81;5196495;28;20030;-74
2022/09/16 03:31:14;;;;;;;9.40;2.30;;;;;;;12.04;100.00;100980.38;5194506;28;20042;-74
2022/09/16 03:33:54;;;;;;;9.03;2.17;;;;;;;12.07;100.00;100989.81;5196066;28;20042;-74
2022/09/16 03:36:32;;;;;;;7.73;2.70;;;;;;;11.99;100.00;100987.66;5196561;28;20109;-73
2022/09/16 03:39:04;;;;;;;6.37;1.60;;;;;;;12.00;100.00;100981.50;5196751;28;20022;-73
2022/09/16 03:41:35;;;;;;;5.03;1.73;;;;;;;11.97;100.00;100976.44;5196032;28;20026;-73
2022/09/16 03:44:07;;;;;;;7.60;2.37;;;;;;;11.74;100.00;100978.72;5195503;28;20041;-74
2022/09/16 03:46:38;;;;;;;8.63;1.90;;;;;;;11.67;100.00;100974.81;5195933;28;20030;-76
2022/09/16 03:49:10;;;;;;;5.63;2.10;;;;;;;11.58;100.00;100976.22;5196026;28;20060;-75
2022/09/16 03:51:41;;;;;;;10.93;2.40;;;;;;;11.76;100.00;100982.09;5195579;28;20042;-74
2022/09/16 03:54:12;;;;;;;7.93;2.13;;;;;;;11.69;100.00;100971.16;5196583;28;20033;-74
2022/09/16 03:56:43;;;;;;;6.80;2.40;;;;;;;11.84;100.00;100982.47;5210559;28;20033;-75
2022/09/16 03:59:16;;;;;;;4.87;1.77;;;;;;;11.80;100.00;100970.47;5195317;28;20112;-74
2022/09/16 04:01:47;;;;;;;10.17;1.80;;;;;;;11.86;100.00;100983.22;5193653;28;20038;-72
2022/09/16 04:04:19;;;;;;;8.23;2.07;;;;;;;11.73;100.00;100982.28;5194654;28;20049;-75
2022/09/16 04:06:50;;;;;;;7.63;2.40;;;;;;;11.81;100.00;100982.66;5195309;28;20487;-75
2022/09/16 04:09:21;;;;;;;6.63;2.03;;;;;;;11.86;100.00;100979.75;5200573;28;20092;-72
2022/09/16 04:11:53;;;;;;;9.83;2.50;;;;;;;11.80;100.00;100967.03;5216121;28;20041;-75
2022/09/16 04:14:24;;;;;;;5.87;2.30;;;;;;;11.65;100.00;100982.78;5214603;28;20034;-75
2022/09/16 04:16:55;;;;;;;7.60;2.27;;;;;;;11.58;100.00;100978.84;5216240;28;20026;-73
2022/09/16 04:19:26;;;;;;;6.80;1.87;;;;;;;11.72;100.00;100977.97;5215498;28;20033;-75
2022/09/16 04:21:58;;;;;;;5.67;1.97;;;;;;;11.77;100.00;100985.56;5214913;28;20030;-75
2022/09/16 04:24:29;;;;;;;6.20;2.07;;;;;;;11.77;100.00;100986.41;5215863;28;20091;-75
2022/09/16 04:27:01;;;;;;;5.10;1.77;;;;;;;11.77;100.00;100986.41;5215591;28;20028;-75
2022/09/16 04:29:32;;;;;;;10.23;1.80;;;;;;;11.84;100.00;100990.34;5214792;28;20037;-75
2022/09/16 04:32:03;;;;;;;9.13;2.00;;;;;;;11.76;100.00;100987.34;5216253;28;20030;-74
2022/09/16 04:34:35;;;;;;;7.60;1.80;;;;;;;11.75;100.00;100983.03;5216171;28;20026;-75
2022/09/16 04:37:06;;;;;;;10.90;1.87;;;;;;;11.85;100.00;100989.38;5216007;28;20092;-75
2022/09/16 04:39:37;;;;;;;7.10;1.80;;;;;;;11.69;100.00;100993.91;5214624;28;20061;-75
2022/09/16 04:42:11;;;;;;;5.77;1.67;;;;;;;11.72;100.00;100994.56;5215755;28;20034;-74
2022/09/16 04:44:43;;;;;;;5.97;1.47;;;;;;;11.66;100.00;100984.44;5214362;28;20556;-75
2022/09/16 04:47:14;;;;;;;8.30;2.33;;;;;;;11.60;100.00;100982.22;5215909;28;20383;-76
2022/09/16 04:49:46;;;;;;;7.17;2.00;;;;;;;11.84;100.00;100992.97;5213687;28;20168;-75
2022/09/16 04:52:17;;;;;;;7.57;1.87;;;;;;;11.81;100.00;100982.66;5215074;28;20030;-73
2022/09/16 04:54:48;;;;;;;4.90;1.93;;;;;;;11.74;100.00;100979.59;5215291;28;20037;-75
2022/09/16 04:57:19;;;;;;;5.63;1.53;;;;;;;11.84;100.00;100971.97;5214920;28;20065;-75
2022/09/16 04:59:51;;;;;;;5.17;1.27;;;;;;;11.89;100.00;100974.28;5214191;28;20044;-73
2022/09/16 05:02:22;;;;;;;8.53;1.63;;;;;;;11.70;100.00;100967.59;5215250;28;20029;-74
2022/09/16 05:04:53;;;;;;;4.47;1.20;;;;;;;11.88;100.00;100977.00;5215489;28;20041;-74
2022/09/16 05:07:27;;;;;;;8.77;1.60;;;;;;;11.79;100.00;100974.03;5215031;28;20040;-73
2022/09/16 05:09:58;;;;;;;5.57;1.47;;;;;;;11.63;100.00;100974.16;5214683;28;20165;-73
2022/09/16 05:12:29;;;;;;;5.83;1.30;;;;;;;11.75;100.00;100975.16;5214514;28;20757;-73
2022/09/16 05:15:00;;;;;;;2.97;1.37;;;;;;;11.77;100.00;100978.53;5213817;28;20411;-73
2022/09/16 05:17:32;;;;;;;6.77;1.93;;;;;;;11.83;100.00;100983.38;5214348;28;20349;-74
2022/09/16 05:20:04;;;;;;;12.57;1.33;;;;;;;11.81;100.00;100982.66;5214309;28;20636;-74
2022/09/16 05:22:36;;;;;;;7.77;1.43;;;;;;;11.77;100.00;100991.66;5194347;28;20038;-74
2022/09/16 05:25:07;;;;;;;7.87;2.00;;;;;;;11.55;100.00;100993.00;5195430;28;20121;-74
2022/09/16 05:27:39;;;;;;;5.33;1.40;;;;;;;11.61;100.00;100997.84;5213955;28;20034;-74
2022/09/16 05:30:13;;;;;;;4.30;1.40;;;;;;;11.55;100.00;101003.50;5212123;28;20041;-73
2022/09/16 05:32:44;;;;;;;4.40;1.42;;;;;;;11.68;100.00;100998.31;5212665;28;20076;-74
2022/09/16 05:35:15;;;;;;;3.53;0.97;;;;;;;11.75;100.00;100998.78;5214821;28;20030;-75
2022/09/16 05:37:48;;;;;;;7.60;1.87;;;;;;;11.72;100.00;100993.72;5213574;28;20508;-74
2022/09/16 05:40:19;;;;;;;5.67;1.37;;;;;;;11.72;100.00;100993.72;5212392;28;20030;-74
2022/09/16 05:42:51;;;;;;;6.23;2.37;;;;;;;11.79;100.00;100995.03;5212806;28;20511;-74
2022/09/16 05:45:22;;;;;;;7.77;1.53;;;;;;;11.78;100.00;100998.56;5213009;28;20025;-75
2022/09/16 05:47:53;;;;;;;7.00;1.50;;;;;;;11.70;100.00;101000.84;5214383;28;20033;-76
2022/09/16 05:50:25;;;;;;;9.33;1.70;;;;;;;11.78;100.00;101001.19;5213517;28;20026;-76
2022/09/16 05:52:56;;;;;;;9.20;1.70;;;;;;;11.79;100.00;100992.41;5214039;28;20068;-74
2022/09/16 05:55:27;;;;;;;6.57;1.67;;;;;;;11.85;100.00;100997.25;5213752;28;20036;-76
2022/09/16 05:57:58;;;;;;;4.37;1.43;;;;;;;11.82;100.00;100994.84;5211862;28;20033;-76
2022/09/16 06:00:30;;;;;;;8.23;2.03;;;;;;;11.86;100.00;100996.34;5212430;28;20029;-75
2022/09/16 06:03:01;;;;;;;4.27;1.17;;;;;;;11.86;100.00;100991.09;5213472;28;20034;-76
2022/09/16 06:05:33;;;;;;;5.67;1.07;;;;;;;11.88;100.00;100995.38;5212471;28;20036;-73
2022/09/16 06:08:04;;;;;;;4.70;0.90;;;;;;;11.90;100.00;100985.63;5212103;28;20068;-73
2022/09/16 06:10:40;;;;;;;5.57;1.10;;;;;;;11.95;100.00;101001.94;5209088;28;20541;-76
2022/09/16 06:13:11;;;;;;;3.43;0.90;;;;;;;11.92;100.00;100999.50;5208102;28;20061;-75
2022/09/16 06:15:52;;;;;;;3.30;0.90;;;;;;;11.95;100.00;101004.56;5208622;28;20057;-78
2022/09/16 06:18:26;;;;;;;4.70;1.10;;;;;;;11.93;100.00;101011.69;5205710;28;20022;-75
2022/09/16 06:21:01;;;;;;;6.10;1.27;;;;;;;11.89;100.00;101002.31;5211582;28;20100;-79
2022/09/16 06:23:33;;;;;;;4.27;1.60;;;;;;;11.97;100.00;101005.31;5205435;28;20088;-79
2022/09/16 06:26:12;;;;;;;5.53;1.10;;;;;;;12.06;100.00;101012.59;5212782;28;20017;-80
2022/09/16 06:28:45;;;;;;;4.10;0.97;;;;;;;12.04;100.00;101019.75;5208020;28;20041;-77
2022/09/16 06:31:19;;;;;;;4.73;1.20;;;;;;;12.07;100.00;101018.69;5211765;28;20068;-79
2022/09/16 06:33:52;;;;;;;4.60;1.30;;;;;;;12.08;100.00;101013.34;5211178;28;20038;-77
2022/09/16 06:36:27;;;;;;;10.77;2.20;;;;;;;12.13;100.00;101025.38;5209693;28;20105;-75
2022/09/16 06:38:58;;;;;;;4.27;0.80;;;;;;;12.12;100.00;101011.38;5224119;28;20041;-79
2022/09/16 06:41:32;;;;;;;3.30;0.90;;;;;;;12.21;100.00;101015.22;5197293;28;20436;-79
2022/09/16 06:44:03;;;;;;;5.60;1.40;;;;;;;12.18;100.00;101025.91;5209465;28;20042;-80
2022/09/16 06:46:35;;;;;;;4.93;1.33;;;;;;;12.14;100.00;101011.28;5196164;28;20411;-72
2022/09/16 06:49:06;;;;;;;5.00;1.33;;;;;;;12.28;100.00;101024.38;5212795;28;20026;-78
2022/09/16 06:51:38;;;;;;;5.17;1.07;;;;;;;12.30;100.00;101027.75;5210836;28;20018;-77
2022/09/16 06:54:09;;;;;;;2.80;1.00;;;;;;;12.32;100.00;101023.22;5212514;28;20057;-77
2022/09/16 06:56:40;;;;;;;5.77;1.50;;;;;;;12.34;100.00;101031.84;5213103;28;20037;-78
2022/09/16 06:59:13;;;;;;;7.90;2.17;;;;;;;12.37;100.00;101024.72;5211979;28;20033;-77
2022/09/16 07:01:44;;;;;;;7.57;1.83;;;;;;;12.34;100.00;101029.22;5213180;28;20022;-78
2022/09/16 07:04:15;;;;;;;4.83;1.20;;;;;;;12.23;100.00;101018.59;5212089;28;20036;-78
2022/09/16 07:06:49;;;;;;;6.97;1.40;;;;;;;12.41;100.00;101021.78;5212835;28;20061;-76
2022/09/16 07:09:21;;;;;;;4.30;1.10;;;;;;;12.46;100.00;101024.16;5212662;28;20057;-76
2022/09/16 07:11:52;;;;;;;4.40;1.10;;;;;;;12.45;100.00;101022.44;5211332;28;20034;-78
2022/09/16 07:14:24;;;;;;;3.43;1.00;;;;;;;12.46;100.00;101018.88;5212074;28;20342;-78
2022/09/16 07:16:55;;;;;;;4.70;1.60;;;;;;;12.49;100.00;101018.69;5213106;28;20036;-77
2022/09/16 07:19:27;;;;;;;4.97;1.53;;;;;;;12.61;100.00;101024.06;5213166;28;20033;-78
2022/09/16 07:21:58;;;;;;;3.80;1.27;;;;;;;12.58;100.00;101010.19;5213381;28;20464;-79
2022/09/16 07:24:30;;;;;;;3.77;1.27;;;;;;;12.69;100.00;101032.28;5208688;28;20618;-79
2022/09/16 07:27:01;;;;;;;4.10;1.27;;;;;;;12.79;100.00;101033.34;5212036;28;20036;-77
2022/09/16 07:29:32;;;;;;;8.80;1.63;;;;;;;12.93;100.00;101037.69;5211553;28;20045;-78
2022/09/16 07:32:04;;;;;;;4.60;0.97;;;;;;;13.05;100.00;101025.53;5213240;28;20037;-79
2022/09/16 07:34:35;;;;;;;4.20;1.40;;;;;;;13.41;100.00;101048.56;5212975;28;20064;-79
2022/09/16 07:37:06;;;;;;;5.33;1.27;;;;;;;13.61;100.00;101043.75;5216581;28;20523;-75
2022/09/16 07:39:38;;;;;;;2.27;0.70;;;;;;;13.62;100.00;101048.06;5215053;28;20029;-78
2022/09/16 07:42:09;;;;;;;5.70;1.10;;;;;;;13.55;100.00;101045.84;5216308;28;20034;-76
2022/09/16 07:44:40;;;;;;;4.80;1.20;;;;;;;13.53;100.00;101055.66;5214206;28;20038;-78
2022/09/16 07:47:11;;;;;;;5.37;1.33;;;;;;;13.53;100.00;101052.16;5216447;28;20026;-78
2022/09/16 07:49:43;;;;;;;11.80;4.90;;;;;;;13.61;100.00;101051.66;5214922;28;20033;-79
2022/09/16 07:52:15;;;;;;;7.40;3.23;;;;;;;13.54;100.00;101046.78;5216526;28;20091;-77
2022/09/16 07:54:48;;;;;;;4.20;1.73;;;;;;;13.40;100.00;101036.38;5216375;28;20034;-78
2022/09/16 07:57:19;;;;;;;5.43;1.53;;;;;;;13.39;100.00;101043.41;5216079;28;20472;-77
2022/09/16 07:59:50;;;;;;;4.20;1.27;;;;;;;13.46;100.00;101048.25;5213964;28;20041;-79
2022/09/16 08:02:21;;;;;;;3.27;1.30;;;;;;;13.51;100.00;101046.16;5216079;28;20052;-78
2022/09/16 08:04:53;;;;;;;2.93;1.57;;;;;;;13.92;100.00;101065.28;5216184;28;20030;-80
2022/09/16 08:07:24;;;;;;;5.27;1.33;;;;;;;14.93;100.00;101061.63;5215187;28;20049;-78
2022/09/16 08:09:55;;;;;;;7.93;1.77;;;;;;;16.23;100.00;101062.31;5215830;28;20184;-78
2022/09/16 08:12:31;;;;;;;3.93;1.60;;;;;;;17.30;100.00;101057.97;5215799;28;20034;-78
2022/09/16 08:15:02;;;;;;;3.33;1.30;;;;;;;18.21;98.16;101061.66;5215470;28;20026;-78
2022/09/16 08:17:35;;;;;;;3.63;0.90;;;;;;;19.05;94.61;101065.69;5215195;28;20045;-78
2022/09/16 08:20:06;;;;;;;3.10;0.83;;;;;;;19.85;86.13;101061.78;5216085;28;20033;-78
2022/09/16 08:22:37;;;;;;;4.68;1.30;;;;;;;20.73;81.09;101062.19;5215402;28;20095;-80
2022/09/16 08:25:08;;;;;;;2.53;1.30;;;;;;;21.35;79.09;101046.28;5213269;28;20022;-77
2022/09/16 08:27:40;;;;;;;4.35;1.30;;;;;;;21.59;80.28;101064.22;5215456;28;20026;-78
2022/09/16 08:30:11;;;;;;;4.28;1.13;;;;;;;22.01;71.04;101061.72;5213126;28;20176;-74
2022/09/16 08:32:43;;;;;;;4.75;1.52;;;;;;;20.97;58.71;101050.09;5201817;28;20032;-74
2022/09/16 08:35:14;;;;;;;6.28;1.48;;;;;;;20.31;60.86;101066.31;5210939;28;20068;-74
2022/09/16 08:37:46;;;;;;;4.55;1.27;;;;;;;19.91;62.27;101060.38;5212651;28;20030;-74
2022/09/16 08:40:22;;;;;;;7.40;1.35;;;;;;;20.58;62.27;101075.19;5215797;28;20029;-74
2022/09/16 08:43:12;;;;;;;3.63;1.08;;;;;;;20.82;63.12;101068.41;5211665;28;20060;-74
2022/09/16 08:45:56;;;;;;;6.35;1.55;;;;;;;19.82;64.46;101068.25;5213820;28;20588;-74
2022/09/16 08:48:39;;;;;;;11.15;2.88;;;;;;;21.72;61.64;101065.59;5212469;28;20137;-74
2022/09/16 08:51:16;;;;;;;7.35;1.35;;;;;;;22.62;58.36;101068.66;5214322;28;20084;-74
2022/09/16 08:54:00;;;;;;;6.45;1.55;;;;;;;23.36;56.74;101066.91;5210792;28;20412;-74
2022/09/16 08:56:35;;;;;;;6.00;1.30;;;;;;;24.03;51.99;101063.97;5213393;28;20101;-74
2022/09/16 08:59:14;;;;;;;8.07;1.27;;;;;;;24.12;51.19;101078.94;5212575;28;20029;-74
2022/09/16 09:01:53;;;;;;;2.42;0.80;;;;;;;23.67;52.34;101070.66;5208832;28;20064;-74
2022/09/16 09:04:25;;;;;;;5.18;1.40;;;;;;;23.96;49.07;101079.88;5212056;28;20026;-74
2022/09/16 09:07:14;;;;;;;2.88;1.10;;;;;;;23.77;50.60;101067.78;5212119;28;20034;-74
2022/09/16 09:10:03;;;;;;;4.50;1.38;;;;;;;23.17;49.97;101068.97;5212775;28;20046;-74
2022/09/16 09:12:44;;;;;;;4.93;1.10;;;;;;;23.39;49.79;101074.56;5211196;28;20026;-74
2022/09/16 09:15:39;;;;;;;6.82;1.40;;;;;;;23.96;51.87;101068.34;5207965;28;20475;-73
2022/09/16 09:18:26;;;;;;;5.43;1.13;;;;;;;23.26;49.69;101064.44;5206343;28;20040;-74
2022/09/16 09:21:34;;;;;;;5.97;1.30;;;;;;;23.23;50.62;101069.28;5212944;28;20034;-75
2022/09/16 09:24:18;;;;;;;3.63;1.40;;;;;;;22.26;52.34;101074.28;5209717;28;20361;-73
2022/09/16 09:26:55;;;;;;;8.02;1.77;;;;;;;21.30;52.09;101061.91;5212189;28;20088;-73
2022/09/16 09:29:54;;;;;;;4.75;1.27;;;;;;;21.64;54.11;101069.09;5212350;28;20057;-73
2022/09/16 09:32:32;;;;;;;3.50;1.20;;;;;;;21.99;53.02;101069.88;5197754;28;20030;-73
2022/09/16 09:35:38;;;;;;;4.47;1.20;;;;;;;22.24;52.10;101063.78;5211843;28;20018;-74
2022/09/16 09:38:21;;;;;;;3.40;1.05;;;;;;;22.21;53.19;101067.63;5198106;28;20091;-74
2022/09/16 09:41:10;;;;;;;4.45;1.00;;;;;;;23.98;50.79;101053.78;5212797;28;20038;-74
2022/09/16 09:44:13;;;;;;;3.80;1.00;;;;;;;24.22;46.94;101067.22;5209313;28;20129;-74
2022/09/16 09:46:51;;;;;;;2.42;0.88;;;;;;;24.80;41.58;101071.28;5203550;28;20434;-74
2022/09/16 09:49:30;;;;;;;3.22;0.93;;;;;;;23.65;45.55;101062.00;5222651;28;20835;-74
2022/09/16 09:52:16;;;;;;;2.67;0.88;;;;;;;25.48;44.84;101065.06;5210571;28;20085;-74
2022/09/16 09:54:49;;;;;;;2.53;0.90;;;;;;;25.98;41.79;101048.34;5211962;28;20033;-74
2022/09/16 09:57:26;;;;;;;3.92;1.00;;;;;;;25.96;41.14;101050.38;5212743;28;20054;-74
2022/09/16 10:00:09;;;;;;;3.88;1.15;;;;;;;26.57;40.14;101070.63;5210178;28;20415;-74
2022/09/16 10:02:44;;;;;;;5.82;0.95;;;;;;;25.17;40.80;101083.00;5203821;28;20025;-74
2022/09/16 10:05:26;;;;;;;3.45;0.70;;;;;;;24.49;40.62;101087.25;5212971;28;20084;-74
2022/09/16 10:08:03;;;;;;;4.38;1.00;;;;;;;22.71;43.68;101104.22;5211927;28;20822;-74
2022/09/16 10:10:45;;;;;;;3.78;1.50;;;;;;;21.72;46.76;101103.78;5210805;28;20038;-74
2022/09/16 10:13:18;;;;;;;11.07;1.58;;;;;;;20.45;52.10;101112.81;5207571;28;20380;-76
2022/09/16 10:15:53;;;;;;;8.13;1.80;;;;;;;19.66;60.63;101111.41;5212533;28;20057;-73
2022/09/16 10:18:28;;;;;;;5.35;0.80;;;;;;;18.86;59.05;101110.69;5200435;28;20022;-72
2022/09/16 10:21:10;;;;;;;1.48;0.40;;;;;;;18.37;60.78;101111.50;5210666;28;20033;-74
2022/09/16 10:23:56;;;;;;;3.95;0.73;;;;;;;18.07;59.32;101104.41;5210141;28;20026;-76
2022/09/16 10:26:28;;;;;;;2.45;0.65;;;;;;;18.13;62.81;101082.69;5213205;28;20058;-76
2022/09/16 10:29:18;;;;;;;4.18;0.40;;;;;;;17.36;64.72;101072.50;5213009;28;20180;-78
2022/09/16 10:31:54;;;;;;;0.55;0.30;;;;;;;17.87;65.23;101086.66;5216963;28;20034;-77
2022/09/16 10:34:41;;;;;;;2.03;0.40;;;;;;;17.43;65.26;101089.53;5218945;28;20049;-77
2022/09/16 10:37:19;;;;;;;1.37;0.50;;;;;;;17.78;65.11;101079.53;5208792;28;20170;-75
2022/09/16 10:39:56;;;;;;;5.00;0.63;;;;;;;17.59;69.00;101086.41;5232984;28;20034;-75
2022/09/16 10:42:28;;;;;;;1.57;0.40;;;;;;;17.43;70.00;101078.94;5211135;28;20468;-74
2022/09/16 10:45:13;;;;;;;1.73;0.60;;;;;;;17.84;67.19;101092.22;5212220;28;20029;-75
2022/09/16 10:47:50;;;;;;;2.67;0.53;;;;;;;17.94;68.00;101094.91;5213391;28;20033;-76
2022/09/16 10:50:23;;;;;;;3.87;0.77;;;;;;;18.13;69.50;101094.13;5212102;28;20041;-75
2022/09/16 10:52:54;;;;;;;6.90;0.90;;;;;;;18.24;67.99;101100.28;5209897;28;20029;-73
2022/09/16 10:55:37;;;;;;;2.90;1.13;;;;;;;18.45;68.54;101091.44;5211849;28;20029;-74
2022/09/16 10:58:18;;;;;;;4.13;1.73;;;;;;;18.40;66.71;101077.75;5209548;28;20029;-74
2022/09/16 11:01:00;;;;;;;3.63;1.37;;;;;;;18.42;67.03;101086.38;5212735;28;20113;-74
2022/09/16 11:03:49;;;;;;;4.13;1.40;;;;;;;18.34;68.15;101087.94;5205587;28;20029;-73
2022/09/16 11:06:34;;;;;;;3.90;1.30;;;;;;;18.37;67.09;101092.94;5212281;28;20447;-73
2022/09/16 11:09:27;;;;;;;5.80;0.93;;;;;;;18.42;67.23;101092.53;5208805;28;20487;-74
2022/09/16 11:12:27;;;;;;;5.20;1.33;;;;;;;18.37;66.89;101085.00;5213813;28;20034;-75
2022/09/16 11:15:12;;;;;;;2.17;0.70;;;;;;;17.93;70.47;101097.66;5212608;28;20508;-72
2022/09/16 11:18:24;;;;;;;3.42;1.52;;;;;;;18.30;67.97;101081.22;5209376;28;20164;-72
2022/09/16 11:20:58;;;;;;;4.07;1.00;;;;;;;18.07;67.01;101094.66;5186657;28;20095;-73
2022/09/16 11:23:34;;;;;;;3.55;1.23;;;;;;;18.24;69.01;101092.34;5213111;28;20084;-71
2022/09/16 11:26:37;;;;;;;4.33;1.23;;;;;;;17.94;71.50;101089.63;5215878;28;20778;-71
2022/09/16 11:29:23;;;;;;;4.53;1.30;;;;;;;18.14;70.25;101082.56;5213611;28;20029;-71
2022/09/16 11:32:28;;;;;;;3.33;1.10;;;;;;;18.40;69.29;101083.03;5213249;28;20153;-71
2022/09/16 11:35:29;;;;;;;5.25;1.60;;;;;;;18.41;70.01;101084.72;5215067;28;20026;-70
2022/09/16 11:38:19;;;;;;;4.90;1.60;;;;;;;17.72;73.30;101088.81;5215395;28;20022;-70
2022/09/16 11:40:56;;;;;;;6.57;2.40;;;;;;;18.10;67.29;101093.56;5213183;28;20033;-71
2022/09/16 11:43:40;;;;;;;7.00;1.67;;;;;;;18.34;68.74;101090.56;5211631;28;20038;-71
2022/09/16 11:46:36;;;;;;;6.00;1.67;;;;;;;18.35;71.36;101092.25;5214712;28;20105;-72
2022/09/16 11:49:51;;;;;;;6.67;1.27;;;;;;;18.58;69.10;101097.28;5215175;28;20040;-70
2022/09/16 11:52:41;;;;;;;6.03;1.47;;;;;;;18.49;65.44;101092.81;5166362;28;20038;-75
2022/09/16 11:55:53;;;;;;;4.33;1.23;;;;;;;18.74;67.86;101101.22;5214990;28;20055;-75
2022/09/16 11:58:36;;;;;;;4.07;1.00;;;;;;;18.42;69.04;101096.97;5200588;28;20041;-74
2022/09/16 12:01:30;;;;;;;7.27;1.23;;;;;;;18.76;67.41;101101.91;5211706;28;20033;-74
2022/09/16 12:04:11;;;;;;;3.83;1.10;;;;;;;18.48;66.83;101099.09;5210777;28;20087;-73
2022/09/16 12:06:56;;;;;;;4.67;1.40;;;;;;;18.32;67.04;101108.44;5213895;28;20029;-74
2022/09/16 12:09:41;;;;;;;5.07;1.10;;;;;;;18.11;67.69;101111.97;5214057;28;20457;-73
2022/09/16 12:12:17;;;;;;;3.33;1.00;;;;;;;18.33;67.15;101111.91;5204095;28;20030;-75